To NAV CANADA Home Page Login to a new session Search on AWWS site Feedback and Comments Disclaimer Vers la page française équivalente Tips FAQ What's new on the site To the Forecasts and Observations / NOTAM section To "File a Flight Plan" website Publications and other links Update of the User's profile FIC Telephone Numbers My Weather Data Folder Route Weather Data Regional Weather Data Local Weather Data To the Forecasts and Observations / NOTAM section
Request Generated 05/30/2015 at 02:01:29 UTC . Weather information available at that time is displayed.

METAR/TAF

NAIN/NL    

LWIS CYDP 300100Z AUTO 30012KT 01/M07 A3015=
LWIS CYDP 300000Z AUTO 31008G18KT 02/M06 A3017=
METAR CYDP 292300Z 29012G19KT 15SM FEW025 03/M07 A3015 RMK SC1 LAST
STAFFED OB/ NEXT 300800 SLP210=

*** REMARK        : Forecast period has ended; this was the last TAF issued
*** REMARQUE : La période de prévision est échue; ceci était le dernier TAF qui a été émis
TAF CYDP 291938Z 2920/2923 30020G30KT P6SM FEW025
BECMG 2921/2923 28015G25KT
RMK NXT FCST WILL BE ISSUED AT 300945Z=
Your time UTC time
Weather data provided by Environment Canada and NAV CANADA